KDPA/DPA METAR and TAF weather

Enter ICAO airport designator
Station Type Date Time Source
KDPA METAR 2019/05/23 18:52 UTC NOAA

KDPA 231852Z 27016G24KT 10SM CLR 23/11 A3003 RMK AO2 PK WND 25027/1812 SLP165 T02280111


Station Type Date Time Source
KDPA Decoded METAR 2019/05/23 18:52 UTC NOAA

CHICAGO/WEST CH DUPAGE, IL, United States (KDPA) 41-54N 88-15W 230M
May 23, 2019 - 02:52 PM EDT / 2019.05.23 1852 UTC
Wind: from the W (270 degrees) at 18 MPH (16 KT) gusting to 28 MPH (24 KT):0
Visibility: 10 mile(s):0
Sky conditions: clear
Temperature: 73.0 F (22.8 C)
Dew Point: 52.0 F (11.1 C)
Relative Humidity: 47%
Pressure (altimeter): 30.03 in. Hg (1016 hPa)
ob: KDPA 231852Z 27016G24KT 10SM CLR 23/11 A3003 RMK AO2 PK WND 25027/1812 SLP165 T02280111
cycle: 19

Station Type Date Time Source
KDPA TAF 2019/05/23 18:42 UTC NOAA

TAF KDPA 231740Z 2318/2418 27015G25KT P6SM FEW050 FEW250
FM240000 32009KT P6SM FEW070 SCT250
FM240300 03007KT P6SM FEW070 BKN250
FM241200 09009KT 6SM -SHRA SCT020 BKN050 PROB30 2412/2415 3SM -TSRA SCT015CB OVC035
FM241600 12010G15KT P6SM BKN060

Example: see airport list